createdAt,value
2017-07-16T17:31:32.185Z,4.00
2017-07-16T17:33:59.604Z,4.20
2017-07-16T17:36:27.043Z,4.00
2017-07-16T17:38:54.453Z,3.40
2017-07-16T17:41:21.881Z,3.77
2017-07-16T17:43:49.302Z,3.33
2017-07-16T17:46:16.857Z,3.83
2017-07-16T17:48:44.286Z,3.83
2017-07-16T17:51:11.716Z,3.60
2017-07-16T17:53:39.900Z,3.80
2017-07-16T17:56:07.333Z,3.90
2017-07-16T17:58:34.758Z,3.97
2017-07-16T18:01:02.946Z,3.60
2017-07-16T18:03:30.375Z,3.33
2017-07-16T18:05:57.826Z,3.40
2017-07-16T18:08:25.236Z,3.80
2017-07-16T18:10:52.657Z,3.17
2017-07-16T18:13:20.149Z,3.20
2017-07-16T18:15:47.568Z,3.80
2017-07-16T18:18:15.003Z,3.83
2017-07-16T18:20:42.421Z,4.40
2017-07-16T18:23:10.617Z,4.00
2017-07-16T18:25:38.041Z,3.60
2017-07-16T18:28:05.623Z,3.60
2017-07-16T18:30:33.001Z,3.50
2017-07-16T18:33:00.441Z,3.60
2017-07-16T18:35:27.861Z,3.40
2017-07-16T18:37:55.301Z,3.60
2017-07-16T18:40:22.728Z,3.27
2017-07-16T18:42:50.161Z,3.60
2017-07-16T18:45:17.581Z,3.20
2017-07-16T18:47:45.149Z,3.67
2017-07-16T18:50:12.565Z,3.70
2017-07-16T18:52:39.993Z,3.53
2017-07-16T18:55:07.429Z,3.70
2017-07-16T18:57:35.618Z,3.30
2017-07-16T19:00:03.048Z,3.37
2017-07-16T19:02:30.471Z,3.30
2017-07-16T19:04:57.903Z,3.70
2017-07-16T19:07:25.331Z,3.23
2017-07-16T19:09:53.535Z,3.20
2017-07-16T19:12:20.958Z,3.77
2017-07-16T19:14:48.389Z,3.33
2017-07-16T19:17:15.817Z,3.53
2017-07-16T19:19:43.254Z,3.83
2017-07-16T19:22:10.672Z,3.10
2017-07-16T19:24:38.861Z,3.70
2017-07-16T19:27:06.293Z,3.53
2017-07-16T19:29:33.712Z,3.70
2017-07-16T19:32:01.157Z,3.77
2017-07-16T19:34:28.585Z,3.50
2017-07-16T19:36:56.016Z,3.20
2017-07-16T19:39:24.217Z,3.40
2017-07-16T19:41:51.648Z,3.80
2017-07-16T19:44:19.069Z,3.60
2017-07-16T19:46:46.537Z,3.70
2017-07-16T19:49:13.970Z,3.67
2017-07-16T19:51:41.469Z,4.10
2017-07-16T19:54:09.121Z,3.23
2017-07-16T19:56:36.750Z,4.03
2017-07-16T19:59:04.301Z,3.03
2017-07-16T20:01:31.725Z,3.30
2017-07-16T20:03:59.154Z,3.47
2017-07-16T20:06:26.593Z,3.90
2017-07-16T20:08:54.032Z,3.83
2017-07-16T20:11:21.472Z,3.47
2017-07-16T20:13:48.910Z,4.07
2017-07-16T20:16:16.351Z,3.53
2017-07-16T20:18:43.789Z,3.80
2017-07-16T20:21:11.213Z,4.07
2017-07-16T20:23:38.650Z,3.90
2017-07-16T20:26:06.169Z,4.10
2017-07-16T20:28:33.612Z,4.00
2017-07-16T20:31:01.036Z,3.70
2017-07-16T20:33:28.475Z,4.07
2017-07-16T20:35:55.913Z,3.93
2017-07-16T20:38:23.369Z,4.17
2017-07-16T20:40:50.813Z,3.80
2017-07-16T20:43:18.247Z,4.07
2017-07-16T20:45:45.751Z,3.83
2017-07-16T20:48:13.178Z,4.30
2017-07-16T20:50:41.383Z,3.70
2017-07-16T20:53:08.810Z,4.50
2017-07-16T20:55:36.245Z,3.70
2017-07-16T20:58:03.669Z,3.83
2017-07-16T21:00:31.106Z,4.70
2017-07-16T21:02:58.529Z,4.43
2017-07-16T21:05:26.726Z,4.40
2017-07-16T21:07:54.150Z,4.87
2017-07-16T21:10:21.589Z,4.10
2017-07-16T21:12:49.014Z,4.57
2017-07-16T21:15:16.451Z,4.73
2017-07-16T21:17:43.873Z,4.70
2017-07-16T21:20:12.099Z,5.10
2017-07-16T21:22:39.520Z,4.33
2017-07-16T21:25:06.941Z,4.10
2017-07-16T21:27:34.373Z,4.57
2017-07-16T21:30:01.802Z,4.60
2017-07-16T21:32:29.229Z,4.50
2017-07-16T21:34:57.417Z,4.67
2017-07-16T21:37:24.849Z,4.23
2017-07-16T21:39:52.273Z,4.53
2017-07-16T21:42:19.717Z,4.20
2017-07-16T21:44:47.142Z,4.40
2017-07-16T21:47:14.583Z,4.40
2017-07-16T21:49:42.765Z,4.60
2017-07-16T21:52:10.259Z,4.70
2017-07-16T21:54:37.685Z,4.43
2017-07-16T21:57:05.118Z,4.43
2017-07-16T21:59:32.542Z,5.57
2017-07-16T22:01:59.981Z,4.67
2017-07-16T22:04:27.413Z,4.13
2017-07-16T22:06:54.849Z,4.47
2017-07-16T22:09:23.036Z,4.90
2017-07-16T22:11:50.469Z,4.50
2017-07-16T22:14:17.899Z,5.30
2017-07-16T22:16:45.346Z,4.83
2017-07-16T22:19:12.768Z,4.67
2017-07-16T22:21:40.185Z,4.97
2017-07-16T22:24:08.385Z,4.00
2017-07-16T22:26:35.813Z,5.30
2017-07-16T22:29:03.244Z,4.80
2017-07-16T22:31:30.675Z,4.70
2017-07-16T22:33:58.197Z,5.53
2017-07-16T22:36:25.623Z,5.00
2017-07-16T22:38:53.072Z,4.53
2017-07-16T22:41:20.479Z,4.30
2017-07-16T22:43:47.932Z,4.77
2017-07-16T22:46:16.334Z,4.70
2017-07-16T22:48:43.792Z,4.70
2017-07-16T22:51:11.219Z,4.37
2017-07-16T22:53:38.657Z,4.33
2017-07-16T22:56:06.844Z,4.00
2017-07-16T22:58:34.282Z,4.37
2017-07-16T23:01:01.740Z,4.27
2017-07-16T23:03:29.162Z,5.17
2017-07-16T23:05:56.577Z,4.70
2017-07-16T23:08:23.998Z,4.47
2017-07-16T23:10:51.497Z,4.83
2017-07-16T23:13:18.920Z,4.17
2017-07-16T23:15:47.117Z,4.93
2017-07-16T23:18:14.541Z,5.00
2017-07-16T23:20:41.967Z,4.33
2017-07-16T23:23:09.402Z,4.70
2017-07-16T23:25:36.921Z,4.93
2017-07-16T23:28:04.357Z,4.63
2017-07-16T23:30:31.776Z,5.13
2017-07-16T23:32:59.198Z,4.93
2017-07-16T23:35:27.405Z,4.13
2017-07-16T23:37:54.833Z,5.10
2017-07-16T23:40:22.276Z,4.50
2017-07-16T23:42:49.697Z,4.20
2017-07-16T23:45:17.117Z,4.10
2017-07-16T23:47:44.554Z,4.70
2017-07-16T23:50:11.987Z,4.80
2017-07-16T23:52:39.419Z,4.70
2017-07-16T23:55:06.849Z,4.93
2017-07-16T23:57:34.435Z,4.50
